Gerona, Spain
Current Conditions -  °F | °C
As of 6:00 PM on Thursday 23 Oct 2014 (Local Time) from LEGE Reporting Station
Clear Clear  
Wind Chill: 70°   Ceiling: Unl
Heat Index: 70°   Visibility: 6mi
Dew Point: 52°   Wind: 5mph
Humidity: 53%   Direction: 220°SW
Pressure: 30"   Gusts: NA
Location:  41.98°N, 2.82°E
Report Text: LEGE 231600Z 22004KT 200V260 CAVOK 21/11 Q1016
Loading
Personal Weather Stations






























Interactive Weather Map
Tropical Storm Tracking
New forecast layout! Learn more

10-Day Weather Forecast

Advertisements
Track Severe Weather on mobile